createdAt,value
2019-01-12T00:00:15.202Z,10.95
2019-01-12T00:01:23.476Z,9.55
2019-01-12T00:02:28.376Z,10.25
2019-01-12T00:03:33.211Z,9.45
2019-01-12T00:04:37.991Z,12.68
2019-01-12T00:05:42.828Z,10.90
2019-01-12T00:06:48.238Z,11.18
2019-01-12T00:07:53.078Z,11.08
2019-01-12T00:08:57.940Z,10.18
2019-01-12T00:10:02.793Z,11.05
2019-01-12T00:11:07.781Z,9.58
2019-01-12T00:12:13.106Z,10.20
2019-01-12T00:13:17.895Z,9.40
2019-01-12T00:14:22.720Z,9.98
2019-01-12T00:15:27.578Z,10.75
2019-01-12T00:16:32.433Z,10.48
2019-01-12T00:17:37.364Z,9.15
2019-01-12T00:18:42.496Z,10.15
2019-01-12T00:19:47.316Z,11.50
2019-01-12T00:20:52.908Z,9.48
2019-01-12T00:21:57.831Z,9.85
2019-01-12T00:23:02.668Z,9.88
2019-01-12T00:24:10.129Z,10.38
2019-01-12T00:25:15.443Z,10.10
2019-01-12T00:26:20.280Z,9.03
2019-01-12T00:27:25.205Z,10.13
2019-01-12T00:28:33.028Z,8.80
2019-01-12T00:29:37.911Z,8.85
2019-01-12T00:30:42.932Z,9.35
2019-01-12T00:31:48.105Z,9.25
2019-01-12T00:32:52.952Z,8.95
2019-01-12T00:33:57.896Z,9.58
2019-01-12T00:35:02.662Z,9.40
2019-01-12T00:36:07.548Z,9.50
2019-01-12T00:37:12.398Z,8.55
2019-01-12T00:38:20.059Z,9.73
2019-01-12T00:39:24.875Z,9.00
2019-01-12T00:40:29.691Z,8.40
2019-01-12T00:41:36.001Z,8.85
2019-01-12T00:42:41.131Z,7.95
2019-01-12T00:43:46.373Z,9.20
2019-01-12T00:44:51.179Z,8.23
2019-01-12T00:45:56.044Z,7.90
2019-01-12T00:47:00.874Z,8.45
2019-01-12T00:48:05.732Z,8.10
2019-01-12T00:49:10.887Z,8.25
2019-01-12T00:50:17.102Z,7.10
2019-01-12T00:51:22.202Z,7.72
2019-01-12T00:52:27.195Z,7.62
2019-01-12T00:53:32.057Z,8.28
2019-01-12T00:54:40.376Z,7.85
2019-01-12T00:55:46.480Z,6.45
2019-01-12T00:56:51.580Z,7.10
2019-01-12T00:57:58.182Z,7.22
2019-01-12T00:59:02.987Z,7.28
2019-01-12T01:00:11.830Z,5.22
2019-01-12T01:01:16.646Z,6.45
2019-01-12T01:02:21.534Z,7.45
2019-01-12T01:03:26.549Z,5.90
2019-01-12T01:04:31.414Z,7.15
2019-01-12T01:05:36.329Z,6.15
2019-01-12T01:06:41.291Z,6.10
2019-01-12T01:07:46.282Z,6.50
2019-01-12T01:08:51.164Z,7.17
2019-01-12T01:09:56.058Z,6.55
2019-01-12T01:11:00.947Z,7.90
2019-01-12T01:12:05.989Z,8.08
2019-01-12T01:13:12.936Z,8.55
2019-01-12T01:14:25.158Z,7.72
2019-01-12T01:15:27.513Z,7.05
2019-01-12T01:16:32.437Z,8.10
2019-01-12T01:17:37.256Z,6.80
2019-01-12T01:18:42.142Z,8.00
2019-01-12T01:19:53.099Z,7.35
2019-01-12T01:20:59.112Z,7.00
2019-01-12T01:22:04.271Z,6.60
2019-01-12T01:23:09.355Z,7.45
2019-01-12T01:24:17.255Z,7.50
2019-01-12T01:25:22.535Z,6.85
2019-01-12T01:26:28.698Z,6.15
2019-01-12T01:27:34.074Z,6.92
2019-01-12T01:28:38.969Z,7.12
2019-01-12T01:29:43.855Z,7.28
2019-01-12T01:30:48.746Z,6.97
2019-01-12T01:31:57.522Z,6.65
2019-01-12T01:33:02.376Z,7.33
2019-01-12T01:34:07.222Z,6.90
2019-01-12T01:35:12.244Z,6.42
2019-01-12T01:36:17.295Z,7.15
2019-01-12T01:37:22.334Z,6.83
2019-01-12T01:38:27.639Z,8.30
2019-01-12T01:39:32.452Z,8.13
2019-01-12T01:40:37.330Z,7.55
2019-01-12T01:41:42.140Z,7.75
2019-01-12T01:42:47.226Z,6.67
2019-01-12T01:43:52.249Z,7.37
2019-01-12T01:44:57.689Z,7.35
2019-01-12T01:46:02.622Z,7.42
2019-01-12T01:47:07.893Z,7.50
2019-01-12T01:48:12.967Z,6.90
2019-01-12T01:49:18.240Z,7.65
2019-01-12T01:50:23.236Z,6.60
2019-01-12T01:51:28.069Z,7.33
2019-01-12T01:52:32.893Z,8.08
2019-01-12T01:53:38.294Z,7.92
2019-01-12T01:54:43.148Z,7.72
2019-01-12T01:55:47.980Z,7.25
2019-01-12T01:56:53.146Z,7.03
2019-01-12T01:57:59.315Z,7.03
2019-01-12T01:59:04.213Z,6.60
2019-01-12T02:00:15.330Z,7.15
2019-01-12T02:01:23.298Z,7.80
2019-01-12T02:02:28.094Z,8.45
2019-01-12T02:03:34.085Z,8.55
2019-01-12T02:04:38.963Z,7.80
2019-01-12T02:05:43.787Z,8.40
2019-01-12T02:06:48.613Z,7.50
2019-01-12T02:07:53.539Z,6.58
2019-01-12T02:08:58.751Z,7.15
2019-01-12T02:10:03.622Z,7.25
2019-01-12T02:11:08.420Z,7.65
2019-01-12T02:12:13.174Z,6.97
2019-01-12T02:13:17.928Z,7.15
2019-01-12T02:14:24.647Z,7.55
2019-01-12T02:15:29.839Z,8.43
2019-01-12T02:16:34.639Z,7.87
2019-01-12T02:17:39.557Z,8.30
2019-01-12T02:18:44.455Z,7.22
2019-01-12T02:19:49.241Z,7.45
2019-01-12T02:20:54.099Z,8.50
2019-01-12T02:22:00.192Z,8.33
2019-01-12T02:23:05.127Z,8.33
2019-01-12T02:24:10.013Z,8.18
2019-01-12T02:25:15.190Z,7.90
2019-01-12T02:26:20.031Z,8.50
2019-01-12T02:27:24.988Z,8.60
2019-01-12T02:28:29.868Z,8.35
2019-01-12T02:29:34.848Z,6.92
2019-01-12T02:30:39.794Z,6.72
2019-01-12T02:31:44.585Z,8.08
2019-01-12T02:32:49.342Z,7.75
2019-01-12T02:33:54.167Z,6.75
2019-01-12T02:34:59.388Z,7.53
2019-01-12T02:36:04.204Z,7.50
2019-01-12T02:37:08.992Z,7.90
2019-01-12T02:38:13.852Z,8.43
2019-01-12T02:39:18.785Z,7.80
2019-01-12T02:40:23.803Z,8.43
2019-01-12T02:41:30.070Z,8.35
2019-01-12T02:42:34.886Z,8.28
2019-01-12T02:43:39.770Z,8.98
2019-01-12T02:44:44.758Z,8.28
2019-01-12T02:45:49.730Z,8.73
2019-01-12T02:46:54.554Z,8.70
2019-01-12T02:47:59.790Z,8.10
2019-01-12T02:49:04.703Z,8.35
2019-01-12T02:50:09.906Z,8.28
2019-01-12T02:51:14.774Z,8.73
2019-01-12T02:52:19.860Z,9.95
2019-01-12T02:53:24.653Z,9.85
2019-01-12T02:54:29.975Z,9.25
2019-01-12T02:55:34.757Z,9.55
2019-01-12T02:56:39.722Z,9.53
2019-01-12T02:57:44.699Z,8.48
2019-01-12T02:58:49.469Z,8.65
2019-01-12T02:59:54.277Z,9.65
2019-01-12T03:00:59.721Z,9.13
2019-01-12T03:02:04.820Z,9.65
2019-01-12T03:03:09.638Z,8.88
2019-01-12T03:04:14.429Z,9.13
2019-01-12T03:05:19.319Z,10.93
2019-01-12T03:06:24.183Z,10.18
2019-01-12T03:07:29.071Z,9.08
2019-01-12T03:08:33.853Z,10.55
2019-01-12T03:09:38.679Z,11.20
2019-01-12T03:10:43.505Z,11.35
2019-01-12T03:11:48.442Z,10.18
2019-01-12T03:12:53.431Z,10.05
2019-01-12T03:13:58.495Z,10.05
2019-01-12T03:15:03.408Z,11.45
2019-01-12T03:16:08.317Z,9.90
2019-01-12T03:17:13.086Z,10.63
2019-01-12T03:18:18.085Z,11.75
2019-01-12T03:19:22.937Z,11.65
2019-01-12T03:20:27.743Z,10.78
2019-01-12T03:21:32.702Z,12.07
2019-01-12T03:22:37.541Z,12.23
2019-01-12T03:23:42.345Z,11.85
2019-01-12T03:24:47.157Z,12.18
2019-01-12T03:25:51.982Z,13.13
2019-01-12T03:26:56.866Z,12.63
2019-01-12T03:28:01.892Z,12.43
2019-01-12T03:29:06.760Z,13.25
2019-01-12T03:30:19.748Z,13.75
2019-01-12T03:31:25.357Z,13.85
2019-01-12T03:32:30.259Z,12.07
2019-01-12T03:33:35.091Z,12.63
2019-01-12T03:34:40.114Z,13.18
2019-01-12T03:35:44.869Z,14.40
2019-01-12T03:36:49.713Z,13.45
2019-01-12T03:37:54.719Z,12.35
2019-01-12T03:38:59.612Z,14.33
2019-01-12T03:40:06.011Z,13.72
2019-01-12T03:41:10.855Z,11.65
2019-01-12T03:42:15.776Z,12.70
2019-01-12T03:43:20.636Z,13.13
2019-01-12T03:44:25.418Z,12.88
2019-01-12T03:45:30.512Z,12.43
2019-01-12T03:46:35.290Z,12.93
2019-01-12T03:47:40.355Z,13.60
2019-01-12T03:48:45.141Z,14.05
2019-01-12T03:49:50.115Z,13.40
2019-01-12T03:50:56.087Z,12.40
2019-01-12T03:52:00.970Z,12.20
2019-01-12T03:53:06.318Z,12.15
2019-01-12T03:54:11.165Z,12.90
2019-01-12T03:55:16.427Z,13.43
2019-01-12T03:56:21.350Z,12.35
2019-01-12T03:57:26.240Z,11.40
2019-01-12T03:58:33.024Z,13.43
2019-01-12T03:59:37.696Z,14.70
2019-01-12T04:00:42.486Z,12.00
2019-01-12T04:01:47.374Z,12.05
2019-01-12T04:02:52.292Z,12.40
2019-01-12T04:03:57.053Z,12.68
2019-01-12T04:05:01.836Z,13.35
2019-01-12T04:06:06.576Z,13.45
2019-01-12T04:07:11.415Z,13.53
2019-01-12T04:08:16.258Z,13.90
2019-01-12T04:09:21.433Z,14.38
2019-01-12T04:10:26.337Z,13.78
2019-01-12T04:11:31.241Z,13.98
2019-01-12T04:12:36.159Z,13.15
2019-01-12T04:13:40.946Z,14.25
2019-01-12T04:14:45.825Z,14.45
2019-01-12T04:15:50.846Z,15.60
2019-01-12T04:16:55.685Z,15.60
2019-01-12T04:18:00.668Z,13.32
2019-01-12T04:19:05.591Z,14.33
2019-01-12T04:20:12.438Z,15.25
2019-01-12T04:21:17.324Z,15.35
2019-01-12T04:22:22.729Z,15.00
2019-01-12T04:23:28.145Z,15.23
2019-01-12T04:24:32.972Z,15.63
2019-01-12T04:25:37.778Z,15.75
2019-01-12T04:26:42.722Z,15.35
2019-01-12T04:27:47.548Z,15.63
2019-01-12T04:28:52.956Z,16.62
2019-01-12T04:29:57.826Z,16.67
2019-01-12T04:31:03.047Z,15.53
2019-01-12T04:32:07.970Z,16.35
2019-01-12T04:33:12.891Z,16.27
2019-01-12T04:34:17.749Z,14.90
2019-01-12T04:35:22.927Z,16.15
2019-01-12T04:36:27.749Z,16.10
2019-01-12T04:37:32.674Z,16.00
2019-01-12T04:38:37.513Z,16.55
2019-01-12T04:39:45.482Z,17.17
2019-01-12T04:40:50.320Z,17.27
2019-01-12T04:41:55.110Z,15.25
2019-01-12T04:43:00.085Z,15.30
2019-01-12T04:44:04.879Z,15.00
2019-01-12T04:45:10.098Z,16.75
2019-01-12T04:46:15.424Z,15.38
2019-01-12T04:47:20.760Z,17.05
2019-01-12T04:48:26.906Z,15.03
2019-01-12T04:49:31.726Z,14.35
2019-01-12T04:51:38.980Z,14.43
2019-01-12T04:52:44.215Z,15.35
2019-01-12T04:53:49.359Z,13.78
2019-01-12T04:54:54.174Z,13.62
2019-01-12T04:56:02.159Z,12.60
2019-01-12T04:57:07.299Z,13.65
2019-01-12T04:58:12.439Z,13.32
2019-01-12T04:59:17.549Z,13.58
2019-01-12T05:00:22.489Z,13.05
2019-01-12T05:01:28.368Z,15.00
2019-01-12T05:02:33.614Z,12.43
2019-01-12T05:03:38.769Z,14.05
2019-01-12T05:04:43.651Z,12.73
2019-01-12T05:05:48.620Z,12.73
2019-01-12T05:06:53.595Z,12.28
2019-01-12T05:07:59.060Z,13.28
2019-01-12T05:09:04.814Z,11.88
2019-01-12T05:10:10.513Z,11.65
2019-01-12T05:11:15.756Z,10.58
2019-01-12T05:12:20.763Z,11.22
2019-01-12T05:13:25.694Z,12.07
2019-01-12T05:14:30.586Z,11.95
2019-01-12T05:15:35.554Z,11.35
2019-01-12T05:16:40.558Z,11.28
2019-01-12T05:17:46.127Z,11.25
2019-01-12T05:18:54.262Z,11.15
2019-01-12T05:19:59.192Z,13.00
2019-01-12T05:21:04.040Z,12.80
2019-01-12T05:22:11.280Z,11.75
2019-01-12T05:23:17.831Z,12.70
2019-01-12T05:24:22.967Z,12.50
2019-01-12T05:25:29.886Z,10.90
2019-01-12T05:26:35.626Z,13.03
2019-01-12T05:27:40.606Z,12.25
2019-01-12T05:28:45.506Z,13.13
2019-01-12T05:29:50.655Z,14.28
2019-01-12T05:30:56.935Z,12.25
2019-01-12T05:32:01.906Z,12.78
2019-01-12T05:33:06.768Z,12.07
2019-01-12T05:34:11.935Z,13.00
2019-01-12T05:35:16.894Z,11.65
2019-01-12T05:36:22.131Z,12.90
2019-01-12T05:37:26.995Z,11.22
2019-01-12T05:38:31.814Z,12.15
2019-01-12T05:39:36.721Z,12.53
2019-01-12T05:40:41.470Z,13.18
2019-01-12T05:41:46.265Z,12.75
2019-01-12T05:42:51.563Z,12.33
2019-01-12T05:43:56.507Z,13.03
2019-01-12T05:45:01.437Z,12.40
2019-01-12T05:46:06.321Z,12.03
2019-01-12T05:47:11.204Z,12.73
2019-01-12T05:48:16.353Z,11.40
2019-01-12T05:49:21.291Z,11.12
2019-01-12T05:50:26.141Z,10.20
2019-01-12T05:51:30.998Z,11.38
2019-01-12T05:52:35.961Z,12.50
2019-01-12T05:53:40.741Z,10.90
2019-01-12T05:54:47.149Z,10.85
2019-01-12T05:55:57.098Z,11.10
2019-01-12T05:57:07.425Z,10.93
2019-01-12T05:58:12.363Z,11.22
2019-01-12T05:59:17.193Z,10.28
2019-01-12T06:00:23.512Z,9.30
2019-01-12T06:01:28.762Z,10.85
2019-01-12T06:02:33.576Z,12.20
2019-01-12T06:03:38.396Z,15.83
2019-01-12T06:04:43.311Z,16.45
2019-01-12T06:05:48.210Z,21.27
2019-01-12T06:06:53.010Z,17.17
2019-01-12T06:07:58.268Z,16.87
2019-01-12T06:09:03.976Z,19.32
2019-01-12T06:10:09.306Z,14.07
2019-01-12T06:11:14.166Z,14.45
2019-01-12T06:12:19.073Z,12.95
2019-01-12T06:13:24.356Z,15.08
2019-01-12T06:14:29.173Z,14.73
2019-01-12T06:15:33.983Z,12.85
2019-01-12T06:16:38.938Z,15.05
2019-01-12T06:17:43.862Z,11.50
2019-01-12T06:18:48.810Z,11.22
2019-01-12T06:19:54.113Z,11.05
2019-01-12T06:20:59.023Z,11.78
2019-01-12T06:22:04.175Z,11.22
2019-01-12T06:23:09.021Z,12.63
2019-01-12T06:24:13.858Z,11.45
2019-01-12T06:25:18.678Z,10.58
2019-01-12T06:26:23.579Z,10.48
2019-01-12T06:27:28.438Z,9.85
2019-01-12T06:28:33.264Z,10.35
2019-01-12T06:29:38.461Z,10.25
2019-01-12T06:30:43.743Z,10.13
2019-01-12T06:31:48.803Z,11.78
2019-01-12T06:32:53.659Z,9.28
2019-01-12T06:33:58.558Z,9.70
2019-01-12T06:35:03.410Z,9.28
2019-01-12T06:36:08.336Z,8.60
2019-01-12T06:37:13.314Z,8.18
2019-01-12T06:38:18.218Z,8.98
2019-01-12T06:39:23.090Z,8.03
2019-01-12T06:40:28.198Z,8.35
2019-01-12T06:41:33.035Z,7.92
2019-01-12T06:42:37.799Z,8.80
2019-01-12T06:43:42.760Z,7.90
2019-01-12T06:44:47.567Z,8.98
2019-01-12T06:45:52.370Z,10.68
2019-01-12T06:46:58.769Z,9.03
2019-01-12T06:48:03.702Z,8.60
2019-01-12T06:49:08.616Z,9.98
2019-01-12T06:50:15.886Z,9.75
2019-01-12T06:51:20.813Z,9.03
2019-01-12T06:52:25.598Z,9.50
2019-01-12T06:53:30.473Z,9.68
2019-01-12T06:54:35.871Z,9.35
2019-01-12T06:55:40.855Z,9.15
2019-01-12T06:56:46.106Z,10.13
2019-01-12T06:57:50.978Z,9.70
2019-01-12T06:58:55.816Z,9.23
2019-01-12T07:00:00.675Z,10.30
2019-01-12T07:01:06.235Z,7.65
2019-01-12T07:02:12.580Z,8.23
2019-01-12T07:03:17.446Z,8.08
2019-01-12T07:04:22.377Z,7.60
2019-01-12T07:05:27.294Z,7.45
2019-01-12T07:06:32.117Z,6.90
2019-01-12T07:07:36.973Z,8.13
2019-01-12T07:08:42.111Z,6.45
2019-01-12T07:09:47.359Z,7.20
2019-01-12T07:10:52.191Z,7.03
2019-01-12T07:11:57.023Z,6.70
2019-01-12T07:13:01.893Z,8.20
2019-01-12T07:14:06.765Z,8.60
2019-01-12T07:15:13.210Z,7.65
2019-01-12T07:16:20.717Z,7.75
2019-01-12T07:17:27.145Z,7.20
2019-01-12T07:18:34.866Z,7.28
2019-01-12T07:19:39.708Z,7.25
2019-01-12T07:20:44.674Z,7.78
2019-01-12T07:21:49.446Z,7.20
2019-01-12T07:22:57.494Z,7.72
2019-01-12T07:24:02.437Z,7.20
2019-01-12T07:25:10.414Z,7.60
2019-01-12T07:26:17.668Z,7.55
2019-01-12T07:27:23.102Z,7.70
2019-01-12T07:28:27.948Z,8.70
2019-01-12T07:29:32.733Z,8.85
2019-01-12T07:30:37.766Z,8.80
2019-01-12T07:31:44.395Z,7.50
2019-01-12T07:32:49.357Z,8.23
2019-01-12T07:33:54.373Z,6.80
2019-01-12T07:34:59.181Z,8.93
2019-01-12T07:36:04.168Z,8.65
2019-01-12T07:37:09.047Z,8.25
2019-01-12T07:38:15.266Z,8.45
2019-01-12T07:39:20.080Z,8.73
2019-01-12T07:40:25.409Z,8.55
2019-01-12T07:41:31.530Z,8.58
2019-01-12T07:42:36.585Z,8.53
2019-01-12T07:43:41.920Z,9.15
2019-01-12T07:44:46.933Z,9.20
2019-01-12T07:46:18.713Z,9.35
2019-01-12T07:47:23.541Z,9.40
2019-01-12T07:48:28.353Z,10.18
2019-01-12T07:49:33.473Z,9.93
2019-01-12T07:50:38.301Z,10.18
2019-01-12T07:51:43.445Z,9.55
2019-01-12T07:52:55.767Z,9.88
2019-01-12T07:54:01.376Z,10.25
2019-01-12T07:55:09.834Z,12.58
2019-01-12T07:56:24.246Z,10.50
2019-01-12T07:57:24.832Z,10.50
2019-01-12T07:58:33.018Z,12.40
2019-01-12T07:59:38.009Z,12.95
2019-01-12T08:00:43.545Z,11.12
2019-01-12T08:01:49.114Z,11.57
2019-01-12T08:02:53.966Z,11.57
2019-01-12T08:03:59.679Z,11.95
2019-01-12T08:05:04.950Z,11.95
2019-01-12T08:06:09.772Z,13.00
2019-01-12T08:07:14.635Z,13.15
2019-01-12T08:08:21.609Z,12.73
2019-01-12T08:09:28.432Z,13.28
2019-01-12T08:10:36.729Z,14.10
2019-01-12T08:11:48.078Z,12.10
2019-01-12T08:12:55.886Z,12.98
2019-01-12T08:14:04.924Z,14.55
2019-01-12T08:15:10.146Z,15.20
2019-01-12T08:16:15.384Z,15.78
2019-01-12T08:17:21.326Z,14.80
2019-01-12T08:18:26.587Z,14.60
2019-01-12T08:19:32.024Z,14.45
2019-01-12T08:20:37.783Z,15.58
2019-01-12T08:21:44.178Z,15.60
2019-01-12T08:22:49.497Z,16.17
2019-01-12T08:23:55.703Z,15.85
2019-01-12T08:25:01.451Z,15.45
2019-01-12T08:26:06.504Z,15.23
2019-01-12T08:27:12.850Z,14.68
2019-01-12T08:28:17.980Z,16.50
2019-01-12T08:29:22.992Z,17.37
2019-01-12T08:30:31.347Z,17.82
2019-01-12T08:31:36.458Z,16.07
2019-01-12T08:32:42.434Z,15.75
2019-01-12T08:33:47.336Z,16.10
2019-01-12T08:34:52.823Z,16.70
2019-01-12T08:35:57.695Z,17.67
2019-01-12T08:37:02.566Z,16.62
2019-01-12T08:38:08.148Z,16.50
2019-01-12T08:39:13.117Z,16.75
2019-01-12T08:40:18.158Z,15.72
2019-01-12T08:41:23.891Z,16.80
2019-01-12T08:42:28.885Z,16.07
2019-01-12T08:43:34.367Z,16.15
2019-01-12T08:44:39.280Z,15.00
2019-01-12T08:45:47.770Z,15.38
2019-01-12T08:46:55.896Z,17.10
2019-01-12T08:48:03.654Z,18.40
2019-01-12T08:49:09.362Z,15.72
2019-01-12T08:50:54.984Z,15.50
2019-01-12T08:52:03.827Z,15.98
2019-01-12T08:53:12.397Z,15.08
2019-01-12T08:54:20.604Z,15.28
2019-01-12T08:55:35.860Z,15.50
2019-01-12T08:57:02.241Z,16.65
2019-01-12T08:58:19.207Z,14.53
2019-01-12T08:59:28.127Z,15.43
2019-01-12T09:00:43.852Z,15.25
2019-01-12T09:01:49.723Z,14.75
2019-01-12T09:02:56.163Z,15.50
2019-01-12T09:04:05.303Z,14.55
2019-01-12T09:05:15.390Z,14.00
2019-01-12T09:07:15.656Z,13.38
2019-01-12T09:08:25.996Z,13.40
2019-01-12T09:09:32.140Z,13.83
2019-01-12T09:10:37.123Z,14.98
2019-01-12T09:11:42.014Z,14.63
2019-01-12T09:12:47.211Z,16.15
2019-01-12T09:13:52.674Z,12.50
2019-01-12T09:14:57.577Z,14.00
2019-01-12T09:16:02.630Z,14.70
2019-01-12T09:17:07.726Z,15.45
2019-01-12T09:18:12.647Z,15.03
2019-01-12T09:19:17.936Z,16.82
2019-01-12T09:20:25.996Z,14.73
2019-01-12T09:21:33.626Z,15.43
2019-01-12T09:22:38.795Z,15.68
2019-01-12T09:23:44.892Z,16.62
2019-01-12T09:24:50.997Z,16.17
2019-01-12T09:25:57.494Z,17.02
2019-01-12T09:27:16.509Z,15.68
2019-01-12T09:28:21.535Z,16.27
2019-01-12T09:29:27.047Z,15.43
2019-01-12T09:30:35.621Z,16.77
2019-01-12T09:31:42.089Z,16.35
2019-01-12T09:32:47.365Z,16.75
2019-01-12T09:33:53.707Z,16.05
2019-01-12T09:34:59.138Z,17.00
2019-01-12T09:36:04.485Z,16.10
2019-01-12T09:37:10.137Z,17.30
2019-01-12T09:38:15.449Z,16.48
2019-01-12T09:39:20.333Z,15.40
2019-01-12T09:40:26.798Z,16.07
2019-01-12T09:41:35.752Z,15.18
2019-01-12T09:42:40.737Z,15.30
2019-01-12T09:43:45.569Z,15.10
2019-01-12T09:44:50.956Z,15.30
2019-01-12T09:45:56.145Z,14.65
2019-01-12T09:47:13.560Z,14.95
2019-01-12T09:48:22.251Z,15.38
2019-01-12T09:49:28.308Z,16.45
2019-01-12T09:50:40.324Z,16.02
2019-01-12T09:51:45.848Z,15.55
2019-01-12T09:52:56.159Z,14.73
2019-01-12T09:54:02.857Z,15.95
2019-01-12T09:55:09.275Z,16.23
2019-01-12T09:56:14.595Z,14.23
2019-01-12T09:57:20.987Z,15.93
2019-01-12T09:58:26.606Z,13.90
2019-01-12T09:59:38.455Z,14.73
2019-01-12T10:00:43.452Z,15.98
2019-01-12T10:01:49.127Z,14.07
2019-01-12T10:02:54.354Z,15.10
2019-01-12T10:03:59.333Z,15.48
2019-01-12T10:05:04.622Z,16.00
2019-01-12T10:06:10.778Z,14.58
2019-01-12T10:07:16.318Z,15.95
2019-01-12T10:08:24.250Z,16.65
2019-01-12T10:09:29.220Z,15.30
2019-01-12T10:10:34.126Z,16.62
2019-01-12T10:11:39.281Z,14.60
2019-01-12T10:12:49.422Z,15.35
2019-01-12T10:14:05.766Z,17.20
2019-01-12T10:15:11.530Z,14.30
2019-01-12T10:16:16.327Z,14.75
2019-01-12T10:17:21.312Z,15.28
2019-01-12T10:18:26.186Z,20.57
2019-01-12T10:19:33.851Z,15.03
2019-01-12T10:20:39.138Z,15.48
2019-01-12T10:21:44.293Z,15.43
2019-01-12T10:22:49.643Z,17.02
2019-01-12T10:23:55.663Z,14.98
2019-01-12T10:25:02.205Z,16.42
2019-01-12T10:26:09.325Z,15.85
2019-01-12T10:27:14.185Z,19.35
2019-01-12T10:28:19.004Z,19.00
2019-01-12T10:29:24.404Z,16.73
2019-01-12T10:30:29.559Z,16.00
2019-01-12T10:31:34.430Z,13.28
2019-01-12T10:32:39.567Z,14.25
2019-01-12T10:33:44.467Z,15.23
2019-01-12T10:34:49.983Z,14.45
2019-01-12T10:35:57.053Z,16.02
2019-01-12T10:37:01.960Z,15.72
2019-01-12T10:38:08.052Z,16.87
2019-01-12T10:39:17.906Z,15.68
2019-01-12T10:40:26.502Z,16.93
2019-01-12T10:41:31.496Z,15.60
2019-01-12T10:42:36.705Z,15.75
2019-01-12T10:43:42.193Z,15.88
2019-01-12T10:44:47.363Z,15.25
2019-01-12T10:45:52.384Z,18.48
2019-01-12T10:46:57.464Z,17.90
2019-01-12T10:48:05.830Z,14.73
2019-01-12T10:49:11.644Z,16.45
2019-01-12T10:50:21.952Z,15.13
2019-01-12T10:51:34.001Z,15.48
2019-01-12T10:52:42.072Z,15.18
2019-01-12T10:53:52.214Z,13.25
2019-01-12T10:55:05.248Z,15.88
2019-01-12T10:56:14.437Z,14.87
2019-01-12T10:57:24.599Z,14.93
2019-01-12T10:58:30.785Z,13.30
2019-01-12T10:59:37.749Z,14.93
2019-01-12T11:00:53.075Z,14.90
2019-01-12T11:02:00.908Z,14.80
2019-01-12T11:03:10.114Z,14.38
2019-01-12T11:04:18.575Z,13.65
2019-01-12T11:05:28.421Z,16.50
2019-01-12T11:06:39.613Z,14.50
2019-01-12T11:07:54.759Z,14.33
2019-01-12T11:09:07.518Z,17.35
2019-01-12T11:10:28.087Z,16.10
2019-01-12T11:11:42.877Z,14.20
2019-01-12T11:12:53.161Z,14.98
2019-01-12T11:14:04.530Z,14.87
2019-01-12T11:15:20.403Z,15.25
2019-01-12T11:16:35.191Z,13.98
2019-01-12T11:17:41.870Z,16.32
2019-01-12T11:18:48.202Z,15.95
2019-01-12T11:19:53.977Z,13.83
2019-01-12T11:21:14.197Z,13.98
2019-01-12T11:22:18.301Z,15.25
2019-01-12T11:23:35.096Z,14.30
2019-01-12T11:24:46.309Z,14.10
2019-01-12T11:26:04.750Z,13.90
2019-01-12T11:27:22.514Z,15.18
2019-01-12T11:28:42.417Z,14.05
2019-01-12T11:29:49.828Z,14.98
2019-01-12T11:30:59.729Z,14.38
2019-01-12T11:32:08.187Z,15.45
2019-01-12T11:33:15.670Z,15.65
2019-01-12T11:34:24.143Z,14.23
2019-01-12T11:35:49.638Z,14.83
2019-01-12T11:36:58.370Z,15.90
2019-01-12T11:38:05.137Z,15.90
2019-01-12T11:39:13.097Z,14.95
2019-01-12T11:40:24.340Z,17.82
2019-01-12T11:41:33.463Z,16.65
2019-01-12T11:42:39.732Z,19.35
2019-01-12T11:43:47.383Z,19.17
2019-01-12T11:44:54.973Z,17.62
2019-01-12T11:46:03.378Z,18.10
2019-01-12T11:47:12.476Z,16.40
2019-01-12T11:48:20.029Z,15.90
2019-01-12T11:49:26.408Z,14.60
2019-01-12T11:50:35.456Z,16.70
2019-01-12T11:51:41.277Z,14.18
2019-01-12T11:52:48.313Z,15.00
2019-01-12T11:53:55.223Z,14.70
2019-01-12T11:55:03.734Z,13.43
2019-01-12T11:56:19.106Z,15.40
2019-01-12T11:57:26.461Z,16.02
2019-01-12T11:58:32.843Z,16.62
2019-01-12T11:59:38.369Z,15.55
2019-01-12T12:00:45.038Z,15.18
2019-01-12T12:01:50.708Z,14.25
2019-01-12T12:02:58.989Z,14.18
2019-01-12T12:04:10.324Z,15.32
2019-01-12T12:05:17.234Z,14.40
2019-01-12T12:06:24.958Z,15.58
2019-01-12T12:07:30.757Z,14.65
2019-01-12T12:08:35.876Z,13.48
2019-01-12T12:09:44.770Z,14.50
2019-01-12T12:10:49.944Z,14.90
2019-01-12T12:11:55.337Z,15.13
2019-01-12T12:13:02.172Z,15.35
2019-01-12T12:14:55.431Z,14.68
2019-01-12T12:16:04.124Z,16.67
2019-01-12T12:17:09.663Z,12.78
2019-01-12T12:18:15.081Z,13.40
2019-01-12T12:19:31.945Z,14.80
2019-01-12T12:20:39.736Z,12.82
2019-01-12T12:21:51.763Z,13.38
2019-01-12T12:22:58.421Z,13.18
2019-01-12T12:24:07.329Z,13.90
2019-01-12T12:25:12.829Z,14.23
2019-01-12T12:26:17.752Z,12.90
2019-01-12T12:27:26.053Z,14.30
2019-01-12T12:28:29.977Z,14.33
2019-01-12T12:29:36.245Z,12.60
2019-01-12T12:30:42.220Z,13.50
2019-01-12T12:31:48.144Z,12.82
2019-01-12T12:32:55.265Z,13.22
2019-01-12T12:34:04.798Z,13.13
2019-01-12T12:35:13.337Z,12.58
2019-01-12T12:36:20.027Z,13.95
2019-01-12T12:37:29.576Z,13.70
2019-01-12T12:38:35.476Z,12.78
2019-01-12T12:39:43.814Z,11.25
2019-01-12T12:40:50.948Z,11.73
2019-01-12T12:41:56.663Z,11.78
2019-01-12T12:43:05.797Z,12.25
2019-01-12T12:44:11.851Z,14.33
2019-01-12T12:45:19.862Z,12.63
2019-01-12T12:46:27.956Z,13.60
2019-01-12T12:47:35.167Z,12.78
2019-01-12T12:48:41.079Z,12.73
2019-01-12T12:49:47.489Z,11.25
2019-01-12T12:50:55.622Z,11.93
2019-01-12T12:52:04.032Z,24.65
2019-01-12T12:53:14.802Z,11.95
2019-01-12T12:54:31.402Z,12.70
2019-01-12T12:55:37.222Z,19.82
2019-01-12T12:56:45.995Z,28.35
2019-01-12T12:57:56.385Z,13.18
2019-01-12T12:59:05.071Z,13.45
2019-01-12T13:00:25.833Z,15.50
2019-01-12T13:03:03.014Z,14.38
2019-01-12T13:04:13.023Z,14.10
2019-01-12T13:05:24.276Z,13.78
2019-01-12T13:06:31.897Z,13.45
2019-01-12T13:07:38.979Z,17.30
2019-01-12T13:08:49.942Z,14.85
2019-01-12T13:10:00.434Z,13.25
2019-01-12T13:11:08.643Z,13.15
2019-01-12T13:12:14.778Z,13.70
2019-01-12T13:13:32.608Z,22.15
2019-01-12T13:14:43.436Z,14.63
2019-01-12T13:15:48.468Z,14.10
2019-01-12T13:16:53.419Z,14.45
2019-01-12T13:17:59.758Z,12.60
2019-01-12T13:19:04.998Z,15.68
2019-01-12T13:20:16.239Z,16.82
2019-01-12T13:21:25.781Z,16.82
2019-01-12T13:22:32.722Z,17.45
2019-01-12T13:23:38.026Z,17.25
2019-01-12T13:24:44.854Z,16.02
2019-01-12T13:25:51.066Z,14.60
2019-01-12T13:27:00.968Z,13.08
2019-01-12T13:28:06.779Z,14.70
2019-01-12T13:29:11.850Z,13.55
2019-01-12T13:30:21.331Z,14.45
2019-01-12T13:31:34.584Z,13.70
2019-01-12T13:32:49.802Z,12.60
2019-01-12T13:33:57.411Z,22.62
2019-01-12T13:35:10.914Z,15.68
2019-01-12T13:36:17.268Z,11.22
2019-01-12T13:37:28.843Z,9.85
2019-01-12T13:38:34.601Z,10.45
2019-01-12T13:39:40.870Z,10.70
2019-01-12T13:40:48.087Z,11.95
2019-01-12T13:41:55.931Z,12.93
2019-01-12T13:43:04.470Z,14.25
2019-01-12T13:44:10.586Z,11.68
2019-01-12T13:45:17.916Z,10.63
2019-01-12T13:46:23.187Z,11.08
2019-01-12T13:47:28.035Z,9.25
2019-01-12T13:48:37.704Z,9.25
2019-01-12T13:49:43.348Z,8.80
2019-01-12T13:50:52.721Z,10.45
2019-01-12T13:51:59.001Z,11.38
2019-01-12T13:53:12.087Z,16.37
2019-01-12T13:54:22.022Z,11.97
2019-01-12T13:55:27.439Z,9.55
2019-01-12T13:56:35.176Z,9.40
2019-01-12T13:57:47.700Z,9.28
2019-01-12T13:58:57.781Z,9.38
2019-01-12T14:00:04.098Z,8.40
2019-01-12T14:01:11.398Z,8.10
2019-01-12T14:02:17.141Z,8.10
2019-01-12T14:03:22.884Z,9.30
2019-01-12T14:04:28.798Z,8.35
2019-01-12T14:05:38.000Z,7.33
2019-01-12T14:06:47.812Z,6.40
2019-01-12T14:07:56.734Z,9.40
2019-01-12T14:09:02.188Z,7.35
2019-01-12T14:10:09.076Z,7.42
2019-01-12T14:11:17.197Z,7.25
2019-01-12T14:12:22.579Z,7.65
2019-01-12T14:13:33.803Z,7.45
2019-01-12T14:14:41.489Z,6.42
2019-01-12T14:15:50.740Z,7.87
2019-01-12T14:17:00.605Z,7.22
2019-01-12T14:18:14.091Z,8.25
2019-01-12T14:19:22.760Z,7.72
2019-01-12T14:20:32.912Z,6.65
2019-01-12T14:21:45.075Z,6.33
2019-01-12T14:22:57.158Z,7.05
2019-01-12T14:24:08.203Z,6.85
2019-01-12T14:25:27.139Z,6.60
2019-01-12T14:26:39.365Z,6.70
2019-01-12T14:27:54.208Z,6.45
2019-01-12T14:28:54.537Z,8.00
2019-01-12T14:30:00.859Z,5.80
2019-01-12T14:31:09.228Z,6.03